sensor_id;sensor_type;location;lat;lon;timestamp;pressure;altitude;pressure_sealevel;temperature;humidity
7170;BME280;3626;42.656;23.312;2022-09-16T00:00:01;94065.63;;;20.17;60.26
7170;BME280;3626;42.656;23.312;2022-09-16T00:00:08;94065.63;;;20.17;60.15
7170;BME280;3626;42.656;23.312;2022-09-16T00:00:15;94064.81;;;20.17;60.40
7170;BME280;3626;42.656;23.312;2022-09-16T00:00:21;94061.19;;;20.18;60.15
7170;BME280;3626;42.656;23.312;2022-09-16T00:00:27;94063.00;;;20.17;60.33
7170;BME280;3626;42.656;23.312;2022-09-16T00:00:33;94058.78;;;20.16;60.22
7170;BME280;3626;42.656;23.312;2022-09-16T00:00:41;94060.38;;;20.17;60.29
7170;BME280;3626;42.656;23.312;2022-09-16T00:00:47;94049.88;;;20.17;60.29
7170;BME280;3626;42.656;23.312;2022-09-16T00:00:53;94056.41;;;20.15;60.35
7170;BME280;3626;42.656;23.312;2022-09-16T00:00:59;94054.03;;;20.13;60.30
7170;BME280;3626;42.656;23.312;2022-09-16T00:01:09;94060.31;;;20.12;60.35
7170;BME280;3626;42.656;23.312;2022-09-16T00:01:18;94060.31;;;20.12;60.38
7170;BME280;3626;42.656;23.312;2022-09-16T00:01:25;94052.44;;;20.12;60.27
7170;BME280;3626;42.656;23.312;2022-09-16T00:01:31;94059.50;;;20.12;60.17
7170;BME280;3626;42.656;23.312;2022-09-16T00:01:37;94051.66;;;20.12;59.99
7170;BME280;3626;42.656;23.312;2022-09-16T00:01:42;94053.72;;;20.10;59.87
7170;BME280;3626;42.656;23.312;2022-09-16T00:01:48;94048.50;;;20.10;59.78
7170;BME280;3626;42.656;23.312;2022-09-16T00:01:54;94048.50;;;20.10;59.66
7170;BME280;3626;42.656;23.312;2022-09-16T00:02:00;94053.72;;;20.10;59.59
7170;BME280;3626;42.656;23.312;2022-09-16T00:02:05;94052.13;;;20.09;59.63
7170;BME280;3626;42.656;23.312;2022-09-16T00:02:11;94046.09;;;20.08;59.74
7170;BME280;3626;42.656;23.312;2022-09-16T00:02:17;94046.09;;;20.08;59.63
7170;BME280;3626;42.656;23.312;2022-09-16T00:02:23;94042.47;;;20.09;59.59
7170;BME280;3626;42.656;23.312;2022-09-16T00:02:28;94050.31;;;20.09;59.59
7170;BME280;3626;42.656;23.312;2022-09-16T00:02:34;94050.31;;;20.09;59.55
7170;BME280;3626;42.656;23.312;2022-09-16T00:02:40;94052.13;;;20.09;59.62
7170;BME280;3626;42.656;23.312;2022-09-16T00:02:46;94050.53;;;20.08;59.59
7170;BME280;3626;42.656;23.312;2022-09-16T00:02:53;94049.75;;;20.07;59.79
7170;BME280;3626;42.656;23.312;2022-09-16T00:02:59;94055.78;;;20.08;59.66
7170;BME280;3626;42.656;23.312;2022-09-16T00:03:05;94048.16;;;20.06;59.76
7170;BME280;3626;42.656;23.312;2022-09-16T00:03:12;94052.63;;;20.06;60.11
7170;BME280;3626;42.656;23.312;2022-09-16T00:03:18;94050.78;;;20.06;60.03
7170;BME280;3626;42.656;23.312;2022-09-16T00:03:24;94048.16;;;20.06;60.06
7170;BME280;3626;42.656;23.312;2022-09-16T00:03:31;94051.56;;;20.07;60.08
7170;BME280;3626;42.656;23.312;2022-09-16T00:03:39;94055.78;;;20.08;60.01
7170;BME280;3626;42.656;23.312;2022-09-16T00:03:46;94050.53;;;20.08;59.86
7170;BME280;3626;42.656;23.312;2022-09-16T00:03:54;94055.00;;;20.07;60.08
7170;BME280;3626;42.656;23.312;2022-09-16T00:04:00;94054.19;;;20.07;60.35
7170;BME280;3626;42.656;23.312;2022-09-16T00:04:06;94052.63;;;20.06;60.34
7170;BME280;3626;42.656;23.312;2022-09-16T00:04:12;94057.06;;;20.05;60.27
7170;BME280;3626;42.656;23.312;2022-09-16T00:04:17;94054.13;;;20.02;60.15
7170;BME280;3626;42.656;23.312;2022-09-16T00:04:24;94055.97;;;20.01;60.15
7170;BME280;3626;42.656;23.312;2022-09-16T00:04:30;94049.34;;;19.98;60.19
7170;BME280;3626;42.656;23.312;2022-09-16T00:04:36;94056.97;;;20.00;60.29
7170;BME280;3626;42.656;23.312;2022-09-16T00:04:42;94051.97;;;19.98;60.20
7170;BME280;3626;42.656;23.312;2022-09-16T00:04:48;94059.59;;;20.00;60.31
7170;BME280;3626;42.656;23.312;2022-09-16T00:04:53;94049.91;;;20.01;60.09
7170;BME280;3626;42.656;23.312;2022-09-16T00:04:59;94054.13;;;20.02;60.23
7170;BME280;3626;42.656;23.312;2022-09-16T00:05:05;94053.34;;;20.01;60.26
7170;BME280;3626;42.656;23.312;2022-09-16T00:05:11;94049.91;;;20.01;60.18
7170;BME280;3626;42.656;23.312;2022-09-16T00:05:17;94051.50;;;20.02;60.19
7170;BME280;3626;42.656;23.312;2022-09-16T00:05:24;94056.75;;;20.02;60.28
7170;BME280;3626;42.656;23.312;2022-09-16T00:05:29;94051.50;;;20.02;60.20
7170;BME280;3626;42.656;23.312;2022-09-16T00:05:39;94052.03;;;20.04;60.26
7170;BME280;3626;42.656;23.312;2022-09-16T00:05:47;94051.25;;;20.03;60.21
7170;BME280;3626;42.656;23.312;2022-09-16T00:05:53;94051.00;;;20.05;60.17
7170;BME280;3626;42.656;23.312;2022-09-16T00:06:00;94053.63;;;20.05;60.23
7170;BME280;3626;42.656;23.312;2022-09-16T00:06:11;94055.47;;;20.04;60.10
7170;BME280;3626;42.656;23.312;2022-09-16T00:06:22;94048.38;;;20.05;60.02
7170;BME280;3626;42.656;23.312;2022-09-16T00:06:29;94049.44;;;20.04;59.88
7170;BME280;3626;42.656;23.312;2022-09-16T00:06:35;94049.44;;;20.04;59.81
7170;BME280;3626;42.656;23.312;2022-09-16T00:06:40;94041.81;;;20.02;59.75
7170;BME280;3626;42.656;23.312;2022-09-16T00:06:46;94045.47;;;20.01;59.68
7170;BME280;3626;42.656;23.312;2022-09-16T00:06:52;94046.47;;;20.00;59.63
7170;BME280;3626;42.656;23.312;2022-09-16T00:06:57;94056.16;;;20.00;59.67
7170;BME280;3626;42.656;23.312;2022-09-16T00:07:03;94043.06;;;20.00;59.74
7170;BME280;3626;42.656;23.312;2022-09-16T00:07:09;94048.31;;;20.00;59.71
7170;BME280;3626;42.656;23.312;2022-09-16T00:07:15;94046.47;;;20.00;59.69
7170;BME280;3626;42.656;23.312;2022-09-16T00:07:22;94043.06;;;20.00;59.49
7170;BME280;3626;42.656;23.312;2022-09-16T00:07:28;94047.53;;;19.99;59.69
7170;BME280;3626;42.656;23.312;2022-09-16T00:07:34;94045.69;;;20.00;59.80
7170;BME280;3626;42.656;23.312;2022-09-16T00:07:40;94048.56;;;19.98;59.94
7170;BME280;3626;42.656;23.312;2022-09-16T00:07:46;94041.50;;;19.98;59.91
7170;BME280;3626;42.656;23.312;2022-09-16T00:07:52;94040.72;;;19.98;59.77
7170;BME280;3626;42.656;23.312;2022-09-16T00:07:58;94040.72;;;19.98;59.58
7170;BME280;3626;42.656;23.312;2022-09-16T00:08:04;94051.97;;;19.98;59.53
7170;BME280;3626;42.656;23.312;2022-09-16T00:08:10;94046.47;;;20.00;59.43
7170;BME280;3626;42.656;23.312;2022-09-16T00:08:17;94044.66;;;20.01;59.24
7170;BME280;3626;42.656;23.312;2022-09-16T00:08:23;94047.84;;;20.03;59.17
7170;BME280;3626;42.656;23.312;2022-09-16T00:08:29;94048.63;;;20.03;59.33
7170;BME280;3626;42.656;23.312;2022-09-16T00:08:36;94047.84;;;20.03;59.31
7170;BME280;3626;42.656;23.312;2022-09-16T00:08:44;94050.00;;;20.06;59.25
7170;BME280;3626;42.656;23.312;2022-09-16T00:08:51;94050.53;;;20.08;58.91
7170;BME280;3626;42.656;23.312;2022-09-16T00:08:59;94044.25;;;20.09;58.82
7170;BME280;3626;42.656;23.312;2022-09-16T00:09:05;94048.50;;;20.10;58.88
7170;BME280;3626;42.656;23.312;2022-09-16T00:09:11;94046.88;;;20.09;58.88
7170;BME280;3626;42.656;23.312;2022-09-16T00:09:17;94045.88;;;20.10;58.98
7170;BME280;3626;42.656;23.312;2022-09-16T00:09:22;94048.50;;;20.10;58.89
7170;BME280;3626;42.656;23.312;2022-09-16T00:09:28;94046.88;;;20.09;58.73
7170;BME280;3626;42.656;23.312;2022-09-16T00:09:35;94045.88;;;20.10;58.73
7170;BME280;3626;42.656;23.312;2022-09-16T00:09:41;94042.47;;;20.09;58.50
7170;BME280;3626;42.656;23.312;2022-09-16T00:09:47;94041.41;;;20.10;58.80
7170;BME280;3626;42.656;23.312;2022-09-16T00:09:53;94044.03;;;20.10;58.92
7170;BME280;3626;42.656;23.312;2022-09-16T00:09:58;94047.44;;;20.11;58.89
7170;BME280;3626;42.656;23.312;2022-09-16T00:10:05;94045.63;;;20.11;58.74
7170;BME280;3626;42.656;23.312;2022-09-16T00:10:12;94046.41;;;20.12;58.63
7170;BME280;3626;42.656;23.312;2022-09-16T00:10:17;94042.75;;;20.13;58.73
7170;BME280;3626;42.656;23.312;2022-09-16T00:10:23;94040.13;;;20.13;58.79
7170;BME280;3626;42.656;23.312;2022-09-16T00:10:30;94048.78;;;20.13;58.77
7170;BME280;3626;42.656;23.312;2022-09-16T00:10:36;94039.34;;;20.12;58.78
7170;BME280;3626;42.656;23.312;2022-09-16T00:10:42;94046.16;;;20.13;58.87
7170;BME280;3626;42.656;23.312;2022-09-16T00:10:48;94048.78;;;20.13;58.83
7170;BME280;3626;42.656;23.312;2022-09-16T00:10:58;94053.81;;;20.15;58.84
7170;BME280;3626;42.656;23.312;2022-09-16T00:11:04;94053.00;;;20.14;58.81
7170;BME280;3626;42.656;23.312;2022-09-16T00:11:10;94053.81;;;20.15;58.89
7170;BME280;3626;42.656;23.312;2022-09-16T00:11:17;94045.94;;;20.15;58.83
7170;BME280;3626;42.656;23.312;2022-09-16T00:11:23;94043.31;;;20.15;58.80
7170;BME280;3626;42.656;23.312;2022-09-16T00:11:31;94042.28;;;20.16;58.80
7170;BME280;3626;42.656;23.312;2022-09-16T00:11:39;94043.31;;;20.15;58.75
7170;BME280;3626;42.656;23.312;2022-09-16T00:11:44;94035.47;;;20.15;58.53
7170;BME280;3626;42.656;23.312;2022-09-16T00:11:50;94037.84;;;20.16;58.60
7170;BME280;3626;42.656;23.312;2022-09-16T00:11:56;94043.06;;;20.16;58.54
7170;BME280;3626;42.656;23.312;2022-09-16T00:12:02;94038.63;;;20.17;58.61
7170;BME280;3626;42.656;23.312;2022-09-16T00:12:08;94043.84;;;20.17;58.63
7170;BME280;3626;42.656;23.312;2022-09-16T00:12:13;94041.25;;;20.17;58.65
7170;BME280;3626;42.656;23.312;2022-09-16T00:12:19;94044.66;;;20.17;58.67
7170;BME280;3626;42.656;23.312;2022-09-16T00:12:25;94041.25;;;20.17;58.64
7170;BME280;3626;42.656;23.312;2022-09-16T00:12:31;94053.09;;;20.19;58.81
7170;BME280;3626;42.656;23.312;2022-09-16T00:12:37;94043.63;;;20.18;58.66
7170;BME280;3626;42.656;23.312;2022-09-16T00:12:43;94041.03;;;20.18;58.51
7170;BME280;3626;42.656;23.312;2022-09-16T00:12:49;94046.00;;;20.20;58.51
7170;BME280;3626;42.656;23.312;2022-09-16T00:12:55;94046.81;;;20.20;58.49
7170;BME280;3626;42.656;23.312;2022-09-16T00:13:02;94048.16;;;20.23;58.36
7170;BME280;3626;42.656;23.312;2022-09-16T00:13:07;94048.16;;;20.23;58.28
7170;BME280;3626;42.656;23.312;2022-09-16T00:13:13;94046.34;;;20.23;58.17
7170;BME280;3626;42.656;23.312;2022-09-16T00:13:19;94045.03;;;20.26;58.21
7170;BME280;3626;42.656;23.312;2022-09-16T00:13:25;94042.41;;;20.26;58.09
7170;BME280;3626;42.656;23.312;2022-09-16T00:13:30;94048.22;;;20.28;58.09
7170;BME280;3626;42.656;23.312;2022-09-16T00:13:36;94044.03;;;20.27;58.09
7170;BME280;3626;42.656;23.312;2022-09-16T00:13:42;94045.59;;;20.28;58.09
7170;BME280;3626;42.656;23.312;2022-09-16T00:13:48;94047.44;;;20.28;58.01
7170;BME280;3626;42.656;23.312;2022-09-16T00:13:53;94044.56;;;20.29;58.01
7170;BME280;3626;42.656;23.312;2022-09-16T00:14:00;94049.81;;;20.29;58.07
7170;BME280;3626;42.656;23.312;2022-09-16T00:14:06;94047.97;;;20.30;58.13
7170;BME280;3626;42.656;23.312;2022-09-16T00:14:11;94048.75;;;20.30;58.24
7170;BME280;3626;42.656;23.312;2022-09-16T00:14:18;94046.16;;;20.30;58.19
7170;BME280;3626;42.656;23.312;2022-09-16T00:14:24;94053.22;;;20.30;58.13
7170;BME280;3626;42.656;23.312;2022-09-16T00:14:30;94051.38;;;20.30;58.14
7170;BME280;3626;42.656;23.312;2022-09-16T00:14:35;94051.97;;;20.32;58.21
7170;BME280;3626;42.656;23.312;2022-09-16T00:14:41;94052.75;;;20.33;58.13
7170;BME280;3626;42.656;23.312;2022-09-16T00:14:47;94051.72;;;20.34;58.17
7170;BME280;3626;42.656;23.312;2022-09-16T00:14:53;94047.25;;;20.34;58.28
7170;BME280;3626;42.656;23.312;2022-09-16T00:14:59;94046.00;;;20.37;58.15
7170;BME280;3626;42.656;23.312;2022-09-16T00:15:06;94046.00;;;20.37;57.93
7170;BME280;3626;42.656;23.312;2022-09-16T00:15:12;94046.00;;;20.37;58.10
7170;BME280;3626;42.656;23.312;2022-09-16T00:15:18;94056.22;;;20.38;57.98
7170;BME280;3626;42.656;23.312;2022-09-16T00:15:25;94057.84;;;20.39;58.00
7170;BME280;3626;42.656;23.312;2022-09-16T00:15:30;94050.97;;;20.38;57.91
7170;BME280;3626;42.656;23.312;2022-09-16T00:15:36;94050.97;;;20.38;58.03
7170;BME280;3626;42.656;23.312;2022-09-16T00:15:48;94057.84;;;20.39;57.98
7170;BME280;3626;42.656;23.312;2022-09-16T00:15:55;94054.16;;;20.40;58.00
7170;BME280;3626;42.656;23.312;2022-09-16T00:16:01;94056.53;;;20.42;57.96
7170;BME280;3626;42.656;23.312;2022-09-16T00:16:15;94050.50;;;20.41;58.02
7170;BME280;3626;42.656;23.312;2022-09-16T00:16:24;94052.88;;;20.43;57.88
7170;BME280;3626;42.656;23.312;2022-09-16T00:16:30;94056.06;;;20.45;57.81
7170;BME280;3626;42.656;23.312;2022-09-16T00:16:35;94057.13;;;20.44;57.80
7170;BME280;3626;42.656;23.312;2022-09-16T00:16:41;94055.28;;;20.44;57.85
7170;BME280;3626;42.656;23.312;2022-09-16T00:16:47;94053.44;;;20.45;57.99
7170;BME280;3626;42.656;23.312;2022-09-16T00:16:54;94060.53;;;20.44;57.82
7170;BME280;3626;42.656;23.312;2022-09-16T00:17:00;94057.66;;;20.46;57.85
7170;BME280;3626;42.656;23.312;2022-09-16T00:17:05;94050.81;;;20.45;58.00
7170;BME280;3626;42.656;23.312;2022-09-16T00:17:11;94055.81;;;20.46;58.07
7170;BME280;3626;42.656;23.312;2022-09-16T00:17:17;94057.34;;;20.42;58.52
7170;BME280;3626;42.656;23.312;2022-09-16T00:17:23;94065.19;;;20.42;58.73
7170;BME280;3626;42.656;23.312;2022-09-16T00:17:29;94069.44;;;20.43;58.78
7170;BME280;3626;42.656;23.312;2022-09-16T00:17:35;94060.75;;;20.43;58.86
7170;BME280;3626;42.656;23.312;2022-09-16T00:17:42;94058.13;;;20.43;58.81
7170;BME280;3626;42.656;23.312;2022-09-16T00:17:47;94064.19;;;20.43;58.86
7170;BME280;3626;42.656;23.312;2022-09-16T00:17:53;94063.16;;;20.44;58.89
7170;BME280;3626;42.656;23.312;2022-09-16T00:17:59;94058.69;;;20.45;58.87
7170;BME280;3626;42.656;23.312;2022-09-16T00:18:05;94063.94;;;20.45;58.73
7170;BME280;3626;42.656;23.312;2022-09-16T00:18:11;94055.28;;;20.44;58.87
7170;BME280;3626;42.656;23.312;2022-09-16T00:18:18;94061.31;;;20.45;58.75
7170;BME280;3626;42.656;23.312;2022-09-16T00:18:24;94065.50;;;20.46;58.78
7170;BME280;3626;42.656;23.312;2022-09-16T00:18:31;94057.66;;;20.46;58.84
7170;BME280;3626;42.656;23.312;2022-09-16T00:18:37;94064.72;;;20.45;58.82
7170;BME280;3626;42.656;23.312;2022-09-16T00:18:43;94060.53;;;20.44;58.73
7170;BME280;3626;42.656;23.312;2022-09-16T00:18:52;94068.59;;;20.43;58.69
7170;BME280;3626;42.656;23.312;2022-09-16T00:18:59;94066.72;;;20.38;58.89
7170;BME280;3626;42.656;23.312;2022-09-16T00:19:07;94062.25;;;20.39;58.96
7170;BME280;3626;42.656;23.312;2022-09-16T00:19:13;94065.91;;;20.38;58.96
7170;BME280;3626;42.656;23.312;2022-09-16T00:19:19;94061.47;;;20.38;58.79
7170;BME280;3626;42.656;23.312;2022-09-16T00:19:24;94062.25;;;20.39;58.89
7170;BME280;3626;42.656;23.312;2022-09-16T00:19:30;94065.69;;;20.39;58.86
7170;BME280;3626;42.656;23.312;2022-09-16T00:19:37;94063.06;;;20.39;58.78
7170;BME280;3626;42.656;23.312;2022-09-16T00:19:43;94060.47;;;20.39;58.76
7170;BME280;3626;42.656;23.312;2022-09-16T00:19:48;94063.06;;;20.39;58.81
7170;BME280;3626;42.656;23.312;2022-09-16T00:19:55;94060.47;;;20.39;58.78
7170;BME280;3626;42.656;23.312;2022-09-16T00:20:01;94063.06;;;20.39;58.80
7170;BME280;3626;42.656;23.312;2022-09-16T00:20:08;94065.44;;;20.41;58.82
7170;BME280;3626;42.656;23.312;2022-09-16T00:20:13;94065.44;;;20.41;58.76
7170;BME280;3626;42.656;23.312;2022-09-16T00:20:19;94064.66;;;20.40;58.80
7170;BME280;3626;42.656;23.312;2022-09-16T00:20:25;94064.66;;;20.40;58.80
7170;BME280;3626;42.656;23.312;2022-09-16T00:20:31;94063.56;;;20.36;58.68
7170;BME280;3626;42.656;23.312;2022-09-16T00:20:42;94054.31;;;20.34;58.43
7170;BME280;3626;42.656;23.312;2022-09-16T00:20:49;94058.56;;;20.35;58.16
7170;BME280;3626;42.656;23.312;2022-09-16T00:20:55;94061.41;;;20.33;58.11
7170;BME280;3626;42.656;23.312;2022-09-16T00:21:05;94070.06;;;20.34;57.92
7170;BME280;3626;42.656;23.312;2022-09-16T00:21:12;94066.63;;;20.33;58.21
7170;BME280;3626;42.656;23.312;2022-09-16T00:21:18;94064.28;;;20.32;58.39
7170;BME280;3626;42.656;23.312;2022-09-16T00:21:25;94071.34;;;20.31;58.45
7170;BME280;3626;42.656;23.312;2022-09-16T00:21:31;94061.06;;;20.30;58.45
7170;BME280;3626;42.656;23.312;2022-09-16T00:21:37;94057.44;;;20.31;58.50
7170;BME280;3626;42.656;23.312;2022-09-16T00:21:46;94066.09;;;20.31;58.40
7170;BME280;3626;42.656;23.312;2022-09-16T00:21:52;94064.50;;;20.30;58.40
7170;BME280;3626;42.656;23.312;2022-09-16T00:21:57;94061.88;;;20.30;58.28
7170;BME280;3626;42.656;23.312;2022-09-16T00:22:03;94059.25;;;20.30;58.13
7170;BME280;3626;42.656;23.312;2022-09-16T00:22:09;94067.09;;;20.30;57.91
7170;BME280;3626;42.656;23.312;2022-09-16T00:22:15;94055.84;;;20.30;57.99
7170;BME280;3626;42.656;23.312;2022-09-16T00:22:21;94066.56;;;20.28;58.87
7170;BME280;3626;42.656;23.312;2022-09-16T00:22:27;94067.03;;;20.25;59.36
7170;BME280;3626;42.656;23.312;2022-09-16T00:22:33;94069.91;;;20.23;59.67
7170;BME280;3626;42.656;23.312;2022-09-16T00:22:40;94061.00;;;20.25;59.57
7170;BME280;3626;42.656;23.312;2022-09-16T00:22:46;94071.50;;;20.25;59.59
7170;BME280;3626;42.656;23.312;2022-09-16T00:22:52;94073.31;;;20.24;59.54
7170;BME280;3626;42.656;23.312;2022-09-16T00:22:57;94067.03;;;20.25;59.51
7170;BME280;3626;42.656;23.312;2022-09-16T00:23:03;94068.88;;;20.25;59.45
7170;BME280;3626;42.656;23.312;2022-09-16T00:23:09;94073.06;;;20.26;59.39
7170;BME280;3626;42.656;23.312;2022-09-16T00:23:15;94073.88;;;20.26;59.54
7170;BME280;3626;42.656;23.312;2022-09-16T00:23:21;94071.25;;;20.26;59.57
7170;BME280;3626;42.656;23.312;2022-09-16T00:23:27;94076.47;;;20.26;59.67
7170;BME280;3626;42.656;23.312;2022-09-16T00:23:33;94068.63;;;20.26;59.74
7170;BME280;3626;42.656;23.312;2022-09-16T00:23:39;94073.88;;;20.26;59.83
7170;BME280;3626;42.656;23.312;2022-09-16T00:23:44;94074.91;;;20.25;59.90
7170;BME280;3626;42.656;23.312;2022-09-16T00:23:50;94078.31;;;20.26;59.83
7170;BME280;3626;42.656;23.312;2022-09-16T00:23:57;94077.53;;;20.25;59.81
7170;BME280;3626;42.656;23.312;2022-09-16T00:24:03;94075.94;;;20.24;59.92
7170;BME280;3626;42.656;23.312;2022-09-16T00:24:10;94071.50;;;20.25;59.86
7170;BME280;3626;42.656;23.312;2022-09-16T00:24:18;94080.41;;;20.23;59.74
7170;BME280;3626;42.656;23.312;2022-09-16T00:24:24;94074.13;;;20.25;59.79
7170;BME280;3626;42.656;23.312;2022-09-16T00:24:30;94077.53;;;20.25;59.65
7170;BME280;3626;42.656;23.312;2022-09-16T00:24:36;94070.44;;;20.26;59.53
7170;BME280;3626;42.656;23.312;2022-09-16T00:24:42;94074.91;;;20.25;59.70
7170;BME280;3626;42.656;23.312;2022-09-16T00:24:48;94076.47;;;20.26;59.64
7170;BME280;3626;42.656;23.312;2022-09-16T00:24:54;94076.47;;;20.26;59.65
7170;BME280;3626;42.656;23.312;2022-09-16T00:24:59;94073.88;;;20.26;59.72
7170;BME280;3626;42.656;23.312;2022-09-16T00:25:06;94074.91;;;20.25;59.62
7170;BME280;3626;42.656;23.312;2022-09-16T00:25:12;94075.69;;;20.26;59.60
7170;BME280;3626;42.656;23.312;2022-09-16T00:25:17;94074.91;;;20.25;59.69
7170;BME280;3626;42.656;23.312;2022-09-16T00:25:23;94080.72;;;20.27;59.71
7170;BME280;3626;42.656;23.312;2022-09-16T00:25:29;94080.72;;;20.27;59.66
7170;BME280;3626;42.656;23.312;2022-09-16T00:25:36;94075.47;;;20.27;59.71
7170;BME280;3626;42.656;23.312;2022-09-16T00:25:43;94074.91;;;20.25;59.70
7170;BME280;3626;42.656;23.312;2022-09-16T00:25:50;94075.69;;;20.26;59.59
7170;BME280;3626;42.656;23.312;2022-09-16T00:25:57;94080.16;;;20.25;59.57
7170;BME280;3626;42.656;23.312;2022-09-16T00:26:03;94077.53;;;20.25;59.56
7170;BME280;3626;42.656;23.312;2022-09-16T00:26:09;94079.34;;;20.25;59.62
7170;BME280;3626;42.656;23.312;2022-09-16T00:26:15;94081.19;;;20.24;59.65
7170;BME280;3626;42.656;23.312;2022-09-16T00:26:21;94082.75;;;20.25;59.54
7170;BME280;3626;42.656;23.312;2022-09-16T00:26:27;94073.31;;;20.24;59.60
7170;BME280;3626;42.656;23.312;2022-09-16T00:26:34;94080.41;;;20.23;59.77
7170;BME280;3626;42.656;23.312;2022-09-16T00:26:40;94077.78;;;20.23;59.55
7170;BME280;3626;42.656;23.312;2022-09-16T00:26:46;94078.56;;;20.24;59.58
7170;BME280;3626;42.656;23.312;2022-09-16T00:26:52;94081.19;;;20.24;59.56
7170;BME280;3626;42.656;23.312;2022-09-16T00:26:58;94074.38;;;20.23;59.66
7170;BME280;3626;42.656;23.312;2022-09-16T00:27:04;94075.94;;;20.24;59.60
7170;BME280;3626;42.656;23.312;2022-09-16T00:27:10;94075.94;;;20.24;59.52
7170;BME280;3626;42.656;23.312;2022-09-16T00:27:16;94070.69;;;20.24;59.50
7170;BME280;3626;42.656;23.312;2022-09-16T00:27:22;94076.72;;;20.25;59.61
7170;BME280;3626;42.656;23.312;2022-09-16T00:27:28;94079.09;;;20.26;59.59
7170;BME280;3626;42.656;23.312;2022-09-16T00:27:33;94072.28;;;20.25;59.53
7170;BME280;3626;42.656;23.312;2022-09-16T00:27:39;94074.91;;;20.25;59.54
7170;BME280;3626;42.656;23.312;2022-09-16T00:27:46;94081.97;;;20.25;59.45
7170;BME280;3626;42.656;23.312;2022-09-16T00:27:52;94075.94;;;20.24;59.44
7170;BME280;3626;42.656;23.312;2022-09-16T00:27:58;94074.91;;;20.25;59.40
7170;BME280;3626;42.656;23.312;2022-09-16T00:28:04;94074.13;;;20.25;59.43
7170;BME280;3626;42.656;23.312;2022-09-16T00:28:09;94074.91;;;20.25;59.48
7170;BME280;3626;42.656;23.312;2022-09-16T00:28:15;94080.41;;;20.23;59.50
7170;BME280;3626;42.656;23.312;2022-09-16T00:28:21;94072.28;;;20.25;59.41
7170;BME280;3626;42.656;23.312;2022-09-16T00:28:27;94074.13;;;20.25;59.34
7170;BME280;3626;42.656;23.312;2022-09-16T00:28:33;94069.66;;;20.25;59.33
7170;BME280;3626;42.656;23.312;2022-09-16T00:28:38;94074.91;;;20.25;59.41
7170;BME280;3626;42.656;23.312;2022-09-16T00:28:47;94072.28;;;20.25;59.43
7170;BME280;3626;42.656;23.312;2022-09-16T00:28:54;94071.50;;;20.25;59.27
7170;BME280;3626;42.656;23.312;2022-09-16T00:29:00;94068.09;;;20.24;59.36
7170;BME280;3626;42.656;23.312;2022-09-16T00:29:06;94065.47;;;20.24;59.26
7170;BME280;3626;42.656;23.312;2022-09-16T00:29:11;94064.91;;;20.22;59.23
7170;BME280;3626;42.656;23.312;2022-09-16T00:29:17;94065.94;;;20.21;59.37
7170;BME280;3626;42.656;23.312;2022-09-16T00:29:23;94065.94;;;20.21;59.48
7170;BME280;3626;42.656;23.312;2022-09-16T00:29:28;94068.22;;;20.17;59.59
7170;BME280;3626;42.656;23.312;2022-09-16T00:29:34;94063.00;;;20.17;59.63
7170;BME280;3626;42.656;23.312;2022-09-16T00:29:40;94067.69;;;20.15;59.52
7170;BME280;3626;42.656;23.312;2022-09-16T00:29:46;94064.28;;;20.15;59.51
7170;BME280;3626;42.656;23.312;2022-09-16T00:29:51;94059.50;;;20.12;59.61
7170;BME280;3626;42.656;23.312;2022-09-16T00:29:58;94056.34;;;20.10;59.53
7170;BME280;3626;42.656;23.312;2022-09-16T00:30:04;94065.00;;;20.10;59.56
7170;BME280;3626;42.656;23.312;2022-09-16T00:30:11;94062.59;;;20.09;59.56
7170;BME280;3626;42.656;23.312;2022-09-16T00:30:17;94066.25;;;20.08;59.59
7170;BME280;3626;42.656;23.312;2022-09-16T00:30:23;94057.59;;;20.07;59.70
7170;BME280;3626;42.656;23.312;2022-09-16T00:30:28;94063.88;;;20.06;59.75
7170;BME280;3626;42.656;23.312;2022-09-16T00:30:34;94054.44;;;20.05;59.84
7170;BME280;3626;42.656;23.312;2022-09-16T00:30:40;94070.38;;;20.04;59.80
7170;BME280;3626;42.656;23.312;2022-09-16T00:30:46;94062.53;;;20.04;59.79
7170;BME280;3626;42.656;23.312;2022-09-16T00:30:52;94059.91;;;20.04;59.90
7170;BME280;3626;42.656;23.312;2022-09-16T00:30:58;94053.88;;;20.03;59.88
7170;BME280;3626;42.656;23.312;2022-09-16T00:31:04;94059.91;;;20.04;59.76
7170;BME280;3626;42.656;23.312;2022-09-16T00:31:10;94054.91;;;20.02;59.82
7170;BME280;3626;42.656;23.312;2022-09-16T00:31:16;94061.47;;;20.05;59.68
7170;BME280;3626;42.656;23.312;2022-09-16T00:31:22;94058.88;;;20.05;59.64
7170;BME280;3626;42.656;23.312;2022-09-16T00:31:29;94058.88;;;20.05;59.83
7170;BME280;3626;42.656;23.312;2022-09-16T00:31:35;94066.72;;;20.05;59.63
7170;BME280;3626;42.656;23.312;2022-09-16T00:31:41;94067.75;;;20.04;59.86
7170;BME280;3626;42.656;23.312;2022-09-16T00:31:46;94062.53;;;20.04;59.98
7170;BME280;3626;42.656;23.312;2022-09-16T00:31:52;94058.06;;;20.04;59.91
7170;BME280;3626;42.656;23.312;2022-09-16T00:31:58;94064.94;;;20.05;59.80
7170;BME280;3626;42.656;23.312;2022-09-16T00:32:04;94061.25;;;20.06;59.90
7170;BME280;3626;42.656;23.312;2022-09-16T00:32:10;94064.69;;;20.07;59.92
7170;BME280;3626;42.656;23.312;2022-09-16T00:32:15;94062.84;;;20.07;59.93
7170;BME280;3626;42.656;23.312;2022-09-16T00:32:21;94061.00;;;20.08;59.74
7170;BME280;3626;42.656;23.312;2022-09-16T00:32:28;94063.63;;;20.08;59.86
7170;BME280;3626;42.656;23.312;2022-09-16T00:32:34;94061.00;;;20.08;59.89
7170;BME280;3626;42.656;23.312;2022-09-16T00:32:39;94059.97;;;20.09;59.91
7170;BME280;3626;42.656;23.312;2022-09-16T00:32:45;94057.34;;;20.09;59.74
7170;BME280;3626;42.656;23.312;2022-09-16T00:32:51;94060.78;;;20.09;59.80
7170;BME280;3626;42.656;23.312;2022-09-16T00:32:57;94063.41;;;20.09;59.74
7170;BME280;3626;42.656;23.312;2022-09-16T00:33:04;94060.78;;;20.09;59.80
7170;BME280;3626;42.656;23.312;2022-09-16T00:33:10;94060.53;;;20.11;59.77
7170;BME280;3626;42.656;23.312;2022-09-16T00:33:17;94059.75;;;20.10;59.83
7170;BME280;3626;42.656;23.312;2022-09-16T00:33:23;94054.53;;;20.10;59.67
7170;BME280;3626;42.656;23.312;2022-09-16T00:33:28;94057.13;;;20.10;59.61
7170;BME280;3626;42.656;23.312;2022-09-16T00:33:36;94060.53;;;20.11;59.69
7170;BME280;3626;42.656;23.312;2022-09-16T00:33:41;94060.53;;;20.11;59.79